createdAt,value
2018-08-02T00:00:29.089Z,101302.86
2018-08-02T00:02:59.573Z,101313.14
2018-08-02T00:05:28.820Z,101305.09
2018-08-02T00:07:57.627Z,101305.27
2018-08-02T00:10:26.726Z,101314.45
2018-08-02T00:12:55.093Z,101307.08
2018-08-02T00:15:24.466Z,101317.20
2018-08-02T00:17:53.693Z,101315.17
2018-08-02T00:20:22.083Z,101318.49
2018-08-02T00:22:50.417Z,101313.84
2018-08-02T00:25:18.769Z,101318.14
2018-08-02T00:27:47.142Z,101328.08
2018-08-02T00:30:15.509Z,101333.45
2018-08-02T00:32:43.842Z,101333.48
2018-08-02T00:35:12.210Z,101340.11
2018-08-02T00:37:40.553Z,101340.20
2018-08-02T00:40:09.909Z,101346.67
2018-08-02T00:42:38.262Z,101349.48
2018-08-02T00:45:07.996Z,101344.94
2018-08-02T00:47:37.837Z,101347.75
2018-08-02T00:50:07.741Z,101350.47
2018-08-02T00:52:38.337Z,101353.22
2018-08-02T00:55:08.793Z,101363.95
2018-08-02T00:57:38.164Z,101370.86
2018-08-02T01:00:09.021Z,101400.38
2018-08-02T01:02:38.294Z,101414.10
2018-08-02T01:05:07.590Z,101424.28
2018-08-02T01:07:36.597Z,101418.07
2018-08-02T01:10:06.233Z,101416.24
2018-08-02T01:12:37.053Z,101418.38
2018-08-02T01:15:06.645Z,101426.02
2018-08-02T01:17:36.594Z,101437.31
2018-08-02T01:20:06.667Z,101444.33
2018-08-02T01:22:36.717Z,101446.69
2018-08-02T01:25:07.364Z,101440.66
2018-08-02T01:27:37.701Z,101445.36
2018-08-02T01:30:06.163Z,101454.02
2018-08-02T01:32:34.590Z,101458.02
2018-08-02T01:35:02.902Z,101457.69
2018-08-02T01:37:31.538Z,101448.95
2018-08-02T01:39:59.884Z,101459.82
2018-08-02T01:42:30.573Z,101460.70
2018-08-02T01:44:58.939Z,101466.34
2018-08-02T01:47:27.671Z,101467.37
2018-08-02T01:49:57.603Z,101466.56
2018-08-02T01:52:26.620Z,101459.63
2018-08-02T01:54:54.961Z,101457.30
2018-08-02T01:57:24.308Z,101459.25
2018-08-02T01:59:53.724Z,101458.60
2018-08-02T02:02:22.749Z,101460.73
2018-08-02T02:04:51.105Z,101461.79
2018-08-02T02:07:19.450Z,101459.17
2018-08-02T02:09:47.788Z,101454.64
2018-08-02T02:12:17.265Z,101466.69
2018-08-02T02:14:46.789Z,101467.34
2018-08-02T02:17:16.209Z,101469.80
2018-08-02T02:19:44.565Z,101463.80
2018-08-02T02:22:12.902Z,101470.20
2018-08-02T02:24:41.250Z,101477.55
2018-08-02T02:27:09.882Z,101472.99
2018-08-02T02:29:39.234Z,101477.39
2018-08-02T02:32:08.590Z,101474.91
2018-08-02T02:34:39.414Z,101476.58
2018-08-02T02:37:08.852Z,101478.55
2018-08-02T02:39:38.422Z,101472.81
2018-08-02T02:42:09.037Z,101477.52
2018-08-02T02:44:38.249Z,101480.69
2018-08-02T02:47:08.125Z,101486.27
2018-08-02T02:49:37.677Z,101477.05
2018-08-02T02:52:07.502Z,101472.16
2018-08-02T02:54:37.718Z,101484.70
2018-08-02T02:57:06.549Z,101480.84
2018-08-02T02:59:37.316Z,101485.16
2018-08-02T03:02:08.219Z,101464.80
2018-08-02T03:04:36.908Z,101470.45
2018-08-02T03:07:05.304Z,101466.78
2018-08-02T03:09:33.652Z,101470.53
2018-08-02T03:12:02.000Z,101466.32
2018-08-02T03:14:30.385Z,101463.80
2018-08-02T03:17:00.563Z,101463.84
2018-08-02T03:19:29.845Z,101465.30
2018-08-02T03:21:59.317Z,101467.98
2018-08-02T03:24:28.760Z,101474.73
2018-08-02T03:26:57.789Z,101485.13
2018-08-02T03:29:26.187Z,101489.51
2018-08-02T03:31:54.541Z,101479.80
2018-08-02T03:34:22.981Z,101484.73
2018-08-02T03:36:51.357Z,101487.81
2018-08-02T03:39:20.602Z,101498.17
2018-08-02T03:41:48.945Z,101492.44
2018-08-02T03:44:17.403Z,101493.27
2018-08-02T03:46:45.774Z,101500.03
2018-08-02T03:49:15.126Z,101493.36
2018-08-02T03:51:43.521Z,101496.44
2018-08-02T03:54:12.861Z,101496.62
2018-08-02T03:56:42.225Z,101497.76
2018-08-02T03:59:10.566Z,101507.63
2018-08-02T04:01:38.916Z,101511.28
2018-08-02T04:04:08.402Z,101514.28
2018-08-02T04:06:37.821Z,101514.49
2018-08-02T04:09:10.525Z,101515.14
2018-08-02T04:11:38.911Z,101519.97
2018-08-02T04:14:08.310Z,101518.12
2018-08-02T04:16:37.716Z,101515.33
2018-08-02T04:19:08.093Z,101519.13
2018-08-02T04:21:37.498Z,101518.31
2018-08-02T04:24:06.721Z,101520.98
2018-08-02T04:26:35.055Z,101515.29
2018-08-02T04:29:04.440Z,101509.30
2018-08-02T04:31:32.791Z,101519.58
2018-08-02T04:34:01.229Z,101515.94
2018-08-02T04:36:30.414Z,101517.61
2018-08-02T04:38:59.684Z,101520.10
2018-08-02T04:41:28.869Z,101520.58
2018-08-02T04:43:57.867Z,101525.23
2018-08-02T04:46:26.298Z,101524.53
2018-08-02T04:48:54.714Z,101530.22
2018-08-02T04:51:23.946Z,101529.20
2018-08-02T04:53:52.317Z,101522.44
2018-08-02T04:56:20.655Z,101519.77
2018-08-02T04:58:50.041Z,101513.05
2018-08-02T05:01:18.643Z,101515.34
2018-08-02T05:03:46.986Z,101514.82
2018-08-02T05:06:15.348Z,101518.67
2018-08-02T05:08:43.702Z,101520.20
2018-08-02T05:11:12.107Z,101519.97
2018-08-02T05:13:40.465Z,101517.41
2018-08-02T05:16:08.826Z,101525.31
2018-08-02T05:18:37.832Z,101519.97
2018-08-02T05:21:06.223Z,101519.62
2018-08-02T05:23:34.667Z,101515.13
2018-08-02T05:26:03.008Z,101523.30
2018-08-02T05:28:31.361Z,101521.58
2018-08-02T05:30:59.720Z,101521.80
2018-08-02T05:33:29.506Z,101524.05
2018-08-02T05:36:00.634Z,101527.67
2018-08-02T05:38:29.545Z,101527.33
2018-08-02T05:40:58.613Z,101526.62
2018-08-02T05:43:28.233Z,101534.91
2018-08-02T05:45:57.918Z,101546.64
2018-08-02T05:48:27.822Z,101546.00
2018-08-02T05:50:57.734Z,101534.77
2018-08-02T05:53:27.177Z,101543.44
2018-08-02T05:55:55.565Z,101548.02
2018-08-02T05:58:23.948Z,101554.27
2018-08-02T06:00:52.281Z,101554.79
2018-08-02T06:03:21.664Z,101548.98
2018-08-02T06:05:51.019Z,101547.48
2018-08-02T06:08:19.401Z,101548.81
2018-08-02T06:10:47.820Z,101563.39
2018-08-02T06:13:16.205Z,101565.30
2018-08-02T06:15:44.915Z,101568.92
2018-08-02T06:18:13.302Z,101569.77
2018-08-02T06:20:41.722Z,101569.60
2018-08-02T06:23:10.070Z,101562.16
2018-08-02T06:25:38.510Z,101563.89
2018-08-02T06:28:07.964Z,101571.70
2018-08-02T06:30:38.838Z,101554.91
2018-08-02T06:33:08.061Z,101558.23
2018-08-02T06:35:37.557Z,101555.59
2018-08-02T06:38:06.588Z,101562.63
2018-08-02T06:40:36.597Z,101560.78
2018-08-02T06:43:06.694Z,101561.01
2018-08-02T06:45:37.725Z,101572.90
2018-08-02T06:48:05.636Z,101578.38
2018-08-02T06:50:33.983Z,101572.73
2018-08-02T06:53:02.333Z,101572.51
2018-08-02T06:55:30.767Z,101583.55
2018-08-02T06:57:59.109Z,101585.02
2018-08-02T07:00:29.475Z,101587.09
2018-08-02T07:02:58.767Z,101588.36
2018-08-02T07:05:28.071Z,101586.81
2018-08-02T07:07:56.893Z,101588.28
2018-08-02T07:10:25.240Z,101596.30
2018-08-02T07:12:53.602Z,101592.25
2018-08-02T07:15:21.956Z,101593.61
2018-08-02T07:17:50.315Z,101604.14
2018-08-02T07:20:19.385Z,101613.39
2018-08-02T07:22:47.738Z,101619.90
2018-08-02T07:25:16.076Z,101613.45
2018-08-02T07:27:44.409Z,101613.95
2018-08-02T07:30:12.767Z,101623.42
2018-08-02T07:32:41.117Z,101622.41
2018-08-02T07:35:09.573Z,101615.38
2018-08-02T07:37:38.725Z,101616.31
2018-08-02T07:40:08.074Z,101631.72
2018-08-02T07:42:37.462Z,101633.49
2018-08-02T07:45:07.789Z,101636.00
2018-08-02T07:47:36.765Z,101639.11
2018-08-02T07:50:06.425Z,101633.83
2018-08-02T07:52:37.353Z,101627.75
2018-08-02T07:55:08.089Z,101629.38
2018-08-02T07:57:38.880Z,101631.02
2018-08-02T08:00:08.852Z,101637.39
2018-08-02T08:02:39.405Z,101633.66
2018-08-02T08:05:08.401Z,101634.13
2018-08-02T08:07:37.744Z,101629.80
2018-08-02T08:10:06.618Z,101632.56
2018-08-02T08:12:35.566Z,101630.40
2018-08-02T08:15:03.994Z,101639.33
2018-08-02T08:17:33.207Z,101641.30
2018-08-02T08:20:02.554Z,101645.72
2018-08-02T08:22:31.829Z,101648.07
2018-08-02T08:25:01.120Z,101660.55
2018-08-02T08:27:31.051Z,101663.42
2018-08-02T08:30:00.936Z,101662.06
2018-08-02T08:32:29.983Z,101663.08
2018-08-02T08:34:59.438Z,101662.57
2018-08-02T08:37:29.838Z,101658.34
2018-08-02T08:39:59.563Z,101654.25
2018-08-02T08:42:28.750Z,101659.19
2018-08-02T08:44:58.273Z,101649.09
2018-08-02T08:47:27.001Z,101656.41
2018-08-02T08:49:55.321Z,101659.94
2018-08-02T08:52:23.791Z,101660.51
2018-08-02T08:54:52.568Z,101658.52
2018-08-02T08:57:20.941Z,101663.20
2018-08-02T08:59:51.461Z,101653.94
2018-08-02T09:02:19.802Z,101662.80
2018-08-02T09:04:48.157Z,101659.05
2018-08-02T09:07:17.200Z,101655.28
2018-08-02T09:09:45.658Z,101661.83
2018-08-02T09:12:14.413Z,101662.36
2018-08-02T09:14:43.622Z,101661.01
2018-08-02T09:17:11.997Z,101656.36
2018-08-02T09:19:40.381Z,101654.62
2018-08-02T09:22:08.774Z,101654.41
2018-08-02T09:24:38.285Z,101647.67
2018-08-02T09:27:08.129Z,101652.49
2018-08-02T09:29:38.109Z,101652.00
2018-08-02T09:32:08.419Z,101657.47
2018-08-02T09:34:38.317Z,101655.76
2018-08-02T09:37:08.658Z,101650.59
2018-08-02T09:39:39.409Z,101654.16
2018-08-02T09:42:08.487Z,101650.23
2018-08-02T09:44:37.767Z,101652.82
2018-08-02T09:47:06.611Z,101648.80
2018-08-02T09:49:35.671Z,101651.50
2018-08-02T09:52:05.963Z,101650.59
2018-08-02T09:54:35.168Z,101635.55
2018-08-02T09:57:03.522Z,101632.63
2018-08-02T09:59:31.854Z,101627.56
2018-08-02T10:02:05.686Z,101630.44
2018-08-02T10:04:36.690Z,101617.59
2018-08-02T10:07:07.029Z,101625.11
2018-08-02T10:09:36.549Z,101624.79
2018-08-02T10:12:05.530Z,101625.73
2018-08-02T10:14:33.861Z,101631.84
2018-08-02T10:17:02.246Z,101633.66
2018-08-02T10:19:30.581Z,101630.37
2018-08-02T10:21:59.889Z,101620.69
2018-08-02T10:24:30.338Z,101616.66
2018-08-02T10:26:59.716Z,101617.98
2018-08-02T10:29:29.594Z,101619.41
2018-08-02T10:31:59.127Z,101610.11
2018-08-02T10:34:27.950Z,101612.97
2018-08-02T10:36:57.017Z,101618.07
2018-08-02T10:39:27.176Z,101618.16
2018-08-02T10:41:55.535Z,101618.68
2018-08-02T10:44:24.888Z,101614.77
2018-08-02T10:46:53.574Z,101610.01
2018-08-02T10:49:23.253Z,101617.59
2018-08-02T10:51:51.769Z,101612.25
2018-08-02T10:54:21.206Z,101610.48
2018-08-02T10:56:50.574Z,101609.91
2018-08-02T10:59:18.958Z,101604.88
2018-08-02T11:01:47.355Z,101605.47
2018-08-02T11:04:15.691Z,101596.78
2018-08-02T11:06:44.050Z,101603.10
2018-08-02T11:09:12.415Z,101592.36
2018-08-02T11:11:41.662Z,101595.39
2018-08-02T11:14:11.266Z,101598.30
2018-08-02T11:16:40.781Z,101586.30
2018-08-02T11:19:09.800Z,101590.63
2018-08-02T11:21:38.379Z,101583.05
2018-08-02T11:24:09.141Z,101579.82
2018-08-02T11:26:38.543Z,101582.59
2018-08-02T11:29:08.098Z,101580.20
2018-08-02T11:31:40.420Z,101575.69
2018-08-02T11:34:09.692Z,101575.91
2018-08-02T11:36:39.039Z,101575.20
2018-08-02T11:39:09.521Z,101576.11
2018-08-02T11:41:39.026Z,101579.96
2018-08-02T11:44:08.425Z,101576.08
2018-08-02T11:46:37.952Z,101580.62
2018-08-02T11:49:06.340Z,101572.89
2018-08-02T11:51:34.681Z,101570.00
2018-08-02T11:54:04.080Z,101558.67
2018-08-02T11:56:33.411Z,101563.83
2018-08-02T11:59:01.674Z,101563.68
2018-08-02T12:01:30.025Z,101563.48
2018-08-02T12:04:00.841Z,101559.80
2018-08-02T12:06:30.075Z,101555.55
2018-08-02T12:08:59.089Z,101557.78
2018-08-02T12:11:28.066Z,101560.52
2018-08-02T12:13:57.325Z,101553.54
2018-08-02T12:16:27.093Z,101547.44
2018-08-02T12:18:55.596Z,101542.88
2018-08-02T12:21:24.070Z,101535.24
2018-08-02T12:23:52.488Z,101533.98
2018-08-02T12:26:20.852Z,101529.59
2018-08-02T12:28:49.194Z,101524.69
2018-08-02T12:31:17.537Z,101522.02
2018-08-02T12:33:45.908Z,101521.40
2018-08-02T12:36:14.243Z,101515.66
2018-08-02T12:38:42.586Z,101518.81
2018-08-02T12:41:10.941Z,101516.67
2018-08-02T12:43:39.312Z,101517.41
2018-08-02T12:46:08.192Z,101518.22
2018-08-02T12:48:38.516Z,101514.05
2018-08-02T12:51:09.485Z,101511.83
2018-08-02T12:53:38.914Z,101502.12
2018-08-02T12:56:08.368Z,101496.12
2018-08-02T12:58:37.810Z,101495.16
2018-08-02T13:01:06.611Z,101500.64
2018-08-02T13:03:35.761Z,101490.70
2018-08-02T13:06:04.077Z,101491.52
2018-08-02T13:08:33.503Z,101493.12
2018-08-02T13:11:03.633Z,101488.70
2018-08-02T13:13:38.070Z,101485.03
2018-08-02T13:16:07.521Z,101482.79
2018-08-02T13:18:36.880Z,101477.50
2018-08-02T13:21:05.886Z,101477.00
2018-08-02T13:23:35.256Z,101478.27
2018-08-02T13:26:04.244Z,101481.95
2018-08-02T13:28:32.606Z,101475.77
2018-08-02T13:31:00.957Z,101472.35
2018-08-02T13:33:29.378Z,101474.20
2018-08-02T13:35:58.132Z,101475.18
2018-08-02T13:38:27.048Z,101470.87
2018-08-02T13:40:55.393Z,101476.14
2018-08-02T13:43:23.757Z,101474.94
2018-08-02T13:45:52.161Z,101482.53
2018-08-02T13:48:20.501Z,101474.06
2018-08-02T13:50:48.888Z,101478.38
2018-08-02T13:53:17.271Z,101477.83
2018-08-02T13:55:45.606Z,101476.84
2018-08-02T13:58:13.962Z,101475.95
2018-08-02T14:00:42.339Z,101472.29
2018-08-02T14:03:10.701Z,101473.37
2018-08-02T14:05:39.044Z,101474.08
2018-08-02T14:08:07.402Z,101473.64
2018-08-02T14:10:36.946Z,101470.28
2018-08-02T14:13:06.922Z,101470.94
2018-08-02T14:15:35.802Z,101460.04
2018-08-02T14:18:04.877Z,101464.72
2018-08-02T14:20:33.233Z,101464.41
2018-08-02T14:23:01.585Z,101461.83
2018-08-02T14:25:29.938Z,101466.69
2018-08-02T14:27:58.973Z,101463.30
2018-08-02T14:30:29.324Z,101461.09
2018-08-02T14:32:58.099Z,101458.77
2018-08-02T14:35:27.035Z,101464.01
2018-08-02T14:37:55.384Z,101466.16
2018-08-02T14:40:24.615Z,101465.67
2018-08-02T14:42:53.002Z,101467.73
2018-08-02T14:45:21.605Z,101471.86
2018-08-02T14:47:49.961Z,101465.27
2018-08-02T14:50:18.319Z,101465.58
2018-08-02T14:52:46.658Z,101463.95
2018-08-02T14:55:15.322Z,101461.70
2018-08-02T14:57:43.671Z,101456.10
2018-08-02T15:00:12.088Z,101461.60
2018-08-02T15:02:40.536Z,101460.84
2018-08-02T15:05:08.904Z,101462.09
2018-08-02T15:07:38.137Z,101462.80
2018-08-02T15:10:07.765Z,101461.39
2018-08-02T15:12:37.039Z,101458.21
2018-08-02T15:15:06.416Z,101464.50
2018-08-02T15:17:37.004Z,101462.82
2018-08-02T15:20:06.937Z,101463.42
2018-08-02T15:22:35.833Z,101462.72
2018-08-02T15:25:05.443Z,101467.22
2018-08-02T15:27:35.480Z,101462.86
2018-08-02T15:30:06.745Z,101470.80
2018-08-02T15:32:36.918Z,101461.73
2018-08-02T15:35:07.226Z,101471.28
2018-08-02T15:37:37.089Z,101462.59
2018-08-02T15:40:07.673Z,101466.67
2018-08-02T15:42:38.322Z,101464.80
2018-08-02T15:45:09.318Z,101462.59
2018-08-02T15:47:39.953Z,101457.36
2018-08-02T15:50:09.360Z,101458.76
2018-08-02T15:52:38.722Z,101456.00
2018-08-02T15:55:08.004Z,101451.91
2018-08-02T15:57:37.635Z,101458.77
2018-08-02T16:00:07.080Z,101447.36
2018-08-02T16:02:36.507Z,101450.55
2018-08-02T16:05:06.234Z,101444.84
2018-08-02T16:07:35.341Z,101440.48
2018-08-02T16:10:04.751Z,101448.29
2018-08-02T16:12:33.103Z,101448.54
2018-08-02T16:15:01.482Z,101451.56
2018-08-02T16:17:31.924Z,101450.52
2018-08-02T16:20:00.485Z,101452.00
2018-08-02T16:22:28.878Z,101451.47
2018-08-02T16:24:57.274Z,101447.70
2018-08-02T16:27:29.162Z,101446.56
2018-08-02T16:29:58.151Z,101452.80
2018-08-02T16:32:27.554Z,101450.09
2018-08-02T16:34:57.289Z,101446.00
2018-08-02T16:37:25.896Z,101446.35
2018-08-02T16:39:55.183Z,101455.02
2018-08-02T16:42:24.402Z,101455.33
2018-08-02T16:44:52.733Z,101456.12
2018-08-02T16:47:21.081Z,101463.76
2018-08-02T16:49:50.313Z,101464.23
2018-08-02T16:52:18.678Z,101470.68
2018-08-02T16:54:47.018Z,101470.11
2018-08-02T16:57:15.383Z,101471.91
2018-08-02T16:59:43.742Z,101478.84
2018-08-02T17:02:13.005Z,101475.16
2018-08-02T17:04:41.372Z,101474.19
2018-08-02T17:07:09.909Z,101477.78
2018-08-02T17:09:38.286Z,101479.69
2018-08-02T17:12:08.774Z,101475.89
2018-08-02T17:14:38.213Z,101473.18
2018-08-02T17:17:07.470Z,101474.45
2018-08-02T17:19:38.185Z,101474.44
2018-08-02T17:22:07.043Z,101477.89
2018-08-02T17:24:36.189Z,101477.59
2018-08-02T17:27:05.716Z,101476.95
2018-08-02T17:29:35.017Z,101483.96
2018-08-02T17:32:04.983Z,101481.44
2018-08-02T17:34:35.759Z,101482.70
2018-08-02T17:37:05.321Z,101492.95
2018-08-02T17:39:35.417Z,101491.61
2018-08-02T17:42:05.378Z,101493.42
2018-08-02T17:44:35.319Z,101483.30
2018-08-02T17:47:06.172Z,101494.84
2018-08-02T17:49:36.523Z,101497.20
2018-08-02T17:52:04.907Z,101496.41
2018-08-02T17:54:35.280Z,101499.69
2018-08-02T17:57:04.422Z,101495.78
2018-08-02T17:59:34.679Z,101487.85
2018-08-02T18:02:03.058Z,101495.42
2018-08-02T18:04:31.429Z,101494.70
2018-08-02T18:07:01.400Z,101492.94
2018-08-02T18:09:32.049Z,101501.27
2018-08-02T18:12:00.448Z,101504.87
2018-08-02T18:14:28.966Z,101505.97
2018-08-02T18:16:57.793Z,101503.72
2018-08-02T18:19:27.706Z,101505.27
2018-08-02T18:21:57.383Z,101506.08
2018-08-02T18:24:27.281Z,101505.77
2018-08-02T18:26:57.501Z,101517.78
2018-08-02T18:29:26.749Z,101519.41
2018-08-02T18:31:56.455Z,101522.71
2018-08-02T18:34:26.993Z,101516.85
2018-08-02T18:36:55.346Z,101527.19
2018-08-02T18:39:23.723Z,101526.27
2018-08-02T18:41:52.059Z,101528.70
2018-08-02T18:44:21.442Z,101535.28
2018-08-02T18:46:50.831Z,101538.09
2018-08-02T18:49:19.158Z,101538.95
2018-08-02T18:51:47.507Z,101544.76
2018-08-02T18:54:16.780Z,101544.97
2018-08-02T18:56:45.120Z,101544.80
2018-08-02T18:59:14.425Z,101546.08
2018-08-02T19:01:44.020Z,101552.47
2018-08-02T19:04:12.401Z,101548.08
2018-08-02T19:06:40.748Z,101544.19
2018-08-02T19:09:09.618Z,101552.77
2018-08-02T19:11:38.126Z,101550.54
2018-08-02T19:14:07.474Z,101551.17
2018-08-02T19:16:38.126Z,101551.43
2018-08-02T19:19:06.559Z,101551.40
2018-08-02T19:21:35.038Z,101560.26
2018-08-02T19:24:03.985Z,101555.63
2018-08-02T19:26:33.372Z,101555.83
2018-08-02T19:29:01.734Z,101552.64
2018-08-02T19:31:30.138Z,101546.15
2018-08-02T19:33:59.241Z,101544.28
2018-08-02T19:36:29.542Z,101552.96
2018-08-02T19:38:59.801Z,101551.91
2018-08-02T19:41:29.270Z,101555.65
2018-08-02T19:43:58.297Z,101564.16
2018-08-02T19:46:27.685Z,101562.56
2018-08-02T19:48:56.128Z,101566.15
2018-08-02T19:51:24.514Z,101571.88
2018-08-02T19:53:52.953Z,101574.99
2018-08-02T19:56:21.427Z,101571.80
2018-08-02T19:58:49.834Z,101578.43
2018-08-02T20:01:18.190Z,101582.96
2018-08-02T20:03:47.235Z,101584.19
2018-08-02T20:06:15.915Z,101579.64
2018-08-02T20:08:44.219Z,101575.73
2018-08-02T20:11:13.559Z,101571.08
2018-08-02T20:13:44.180Z,101577.45
2018-08-02T20:16:14.002Z,101575.09
2018-08-02T20:18:42.387Z,101570.66
2018-08-02T20:21:10.872Z,101563.41
2018-08-02T20:23:39.255Z,101574.56
2018-08-02T20:26:07.606Z,101579.08
2018-08-02T20:28:36.662Z,101587.22
2018-08-02T20:31:06.919Z,101582.58
2018-08-02T20:33:35.939Z,101584.62
2018-08-02T20:36:05.898Z,101582.70
2018-08-02T20:38:34.848Z,101583.92
2018-08-02T20:41:03.211Z,101590.04
2018-08-02T20:43:32.489Z,101589.59
2018-08-02T20:46:01.722Z,101584.78
2018-08-02T20:48:30.887Z,101593.90
2018-08-02T20:51:01.149Z,101596.44
2018-08-02T20:53:31.719Z,101605.09
2018-08-02T20:56:00.075Z,101604.52
2018-08-02T20:58:28.426Z,101610.56
2018-08-02T21:00:57.397Z,101607.96
2018-08-02T21:03:25.766Z,101616.41
2018-08-02T21:05:54.379Z,101618.96
2018-08-02T21:08:22.948Z,101626.02
2018-08-02T21:10:51.562Z,101619.44
2018-08-02T21:13:20.799Z,101623.49
2018-08-02T21:15:49.215Z,101629.17
2018-08-02T21:18:17.816Z,101631.56
2018-08-02T21:20:46.449Z,101629.91
2018-08-02T21:23:14.828Z,101631.94
2018-08-02T21:25:43.186Z,101630.65
2018-08-02T21:28:11.887Z,101639.65
2018-08-02T21:30:40.250Z,101647.69
2018-08-02T21:33:08.602Z,101649.05
2018-08-02T21:35:37.377Z,101648.36
2018-08-02T21:38:06.887Z,101648.73
2018-08-02T21:40:36.254Z,101645.44
2018-08-02T21:43:05.382Z,101642.58
2018-08-02T21:45:36.955Z,101643.41
2018-08-02T21:48:06.355Z,101649.77
2018-08-02T21:50:36.960Z,101650.77
2018-08-02T21:53:07.587Z,101654.43
2018-08-02T21:55:36.951Z,101650.44
2018-08-02T21:58:07.800Z,101647.77
2018-08-02T22:00:38.265Z,101643.11
2018-08-02T22:03:07.686Z,101642.09
2018-08-02T22:05:39.510Z,101640.44
2018-08-02T22:08:09.010Z,101639.08
2018-08-02T22:10:37.444Z,101643.25
2018-08-02T22:15:52.377Z,101632.08
2018-08-02T22:18:21.587Z,101635.59
2018-08-02T22:20:50.985Z,101629.23
2018-08-02T22:23:19.762Z,101628.91
2018-08-02T22:25:48.979Z,101630.09
2018-08-02T22:28:17.325Z,101615.74
2018-08-02T22:30:45.686Z,101622.41
2018-08-02T22:33:14.582Z,101620.74
2018-08-02T22:35:42.959Z,101621.09
2018-08-02T22:38:11.541Z,101614.42
2018-08-02T22:40:39.905Z,101612.77
2018-08-02T22:43:08.245Z,101619.10
2018-08-02T22:45:37.104Z,101618.73
2018-08-02T22:48:06.182Z,101618.59
2018-08-02T22:50:34.993Z,101613.75
2018-08-02T22:53:03.339Z,101620.42
2018-08-02T22:55:31.718Z,101614.72
2018-08-02T22:58:01.099Z,101625.70
2018-08-02T23:00:30.086Z,101623.03
2018-08-02T23:03:00.109Z,101620.19
2018-08-02T23:05:29.336Z,101619.52
2018-08-02T23:07:58.562Z,101621.31
2018-08-02T23:10:26.940Z,101616.69
2018-08-02T23:12:55.279Z,101610.69
2018-08-02T23:15:23.617Z,101612.69
2018-08-02T23:17:51.953Z,101604.66
2018-08-02T23:20:20.294Z,101605.36
2018-08-02T23:22:51.282Z,101609.70
2018-08-02T23:25:20.394Z,101605.36
2018-08-02T23:27:48.772Z,101605.36
2018-08-02T23:30:18.121Z,101616.69
2018-08-02T23:32:46.465Z,101613.03
2018-08-02T23:35:14.806Z,101616.22
2018-08-02T23:37:43.136Z,101614.69
2018-08-02T23:40:11.473Z,101605.67
2018-08-02T23:42:39.858Z,101604.17
2018-08-02T23:45:08.273Z,101601.02
2018-08-02T23:47:37.363Z,101597.02
2018-08-02T23:50:07.002Z,101600.38
2018-08-02T23:52:36.305Z,101596.75
2018-08-02T23:55:07.252Z,101600.55
2018-08-02T23:57:36.983Z,101602.87
